• METAR

    LHBP Budapest Liszt Ferenc repülőtér METAR

    LHBP 211030Z 23005KT 150V300 CAVOK 11/M01 Q1036 NOSIG

    QNH légnyomás:1036hpa
    Hőmérséklet/temperature: 11°C
    Harmatpont/Dew Point Temp: -1°C

    LHDC Debreceni repülőtér METAR

    LHDC 211015Z 02008KT 340V080 CAVOK 12/M05 Q1035

    QNH légnyomás:1035hpa
    Hőmérskélet/temperature: 12°C
    Harmatpont/Dew Point Temp: -5°C

    LHPR Győr-pér repülőtér METAR

    LHPR 211015Z VRB03KT CAVOK 11/M02 Q1036

    QNH légnyomás:1036hpa
    Hőmérskélet/temperature: 11°C
    Harmatpont/Dew Point Temp: -2°C

    lhsm Sármellék repülőtér METAR

    LHSM 211015Z 34005KT CAVOK 11/M02 Q1036 NOSIG

    QNH légnyomás:1036hpa
    Hőmérskélet/temperature: 11°C
    Harmatpont/Dew Point Temp: -2°C

    lhpp Pécs-pogány repülőtér METAR

    LHPP 211015Z 09002KT CAVOK 12/M04 Q1036

    QNH légnyomás:1036hpa
    Hőmérskélet/temperature: 12°C
    Harmatpont/Dew Point Temp: -4°C

    LHKE Kecskemét repülőtér METAR

    LHKE 211045Z 31006KT 150V350 CAVOK 12/M07 Q1035 NOSIG RMK BLU

    QNH légnyomás:1035hpa
    Hőmérskélet/temperature: 12°C
    Harmatpont/Dew Point Temp: -7°C

    LHSN Szolnok repülőtér METAR

    LHSN 211045Z 30006KT 250V350 CAVOK 12/M06 Q1035 NOSIG RMK BLU

    QNH légnyomás:1035hpa
    Hőmérskélet/temperature: 12°C
    Harmatpont/Dew Point Temp: -6°C

    LHUD szeged repülőtér METAR

    LHUD 211015Z 35008KT CAVOK 13/M05 Q1036

    QNH légnyomás:1036hpa
    Hőmérskélet/temperature: 13°C
    Harmatpont/Dew Point Temp: -5°C

  • TÉRKÉPEK

    Felhőkép

    Széltérkép

    Hőtérkép

    radarkép

    map

    map

  • Műholdképek

    Magyarország műholdkép

    Europa műholdkép

    Europa szinoptikus térkép

  • ELTE ELŐREJELZÉS (2 NAP LHBP)

    2 napos légnyomás előrejelzés Budapest LHBP

    2 napos szél előrejelzés Budapest LHBP

    2 napos termik trigger előrejelzés Budapest LHBP

    2 napos felhőzet előrejelzés Budapest LHBP

    2 napos thermal index profile előrejelzés Budapest LHBP

    2 napos átlag emelés előrejelzés Budapest LHBP

    2 napos felhő alap előrejelzés Budapest LHBP

    2 napos hőmérséklet advekció előrejelzés Budapest LHBP

  • VILLÁMRADAR

  • ELŐREJELZÉS

  • WINDFINDER ELŐREJELZÉS

  • RIASZTÁS - VÉSZJELZÉS

Repülésmeteorológia, aktuális időjárási helyzet és előrejelzés

Repülésmeteorológia, várható időjárás jelentések, előrejelzések és riasztások. METAR, TAF adatok, aktuális időjárás helyzetek és térképek.

A meteorológia kialakulásában és fejlődésében kiemelt szerep jutott a repülésnek, illetve a repülés technikai fejlődésének. A repülésmeteorológia elsődlegesen a repülés biztonságát, másodlagosan a repülés gazdaságosságát hivatott szolgálni. Eleinte a katonai repülőgépeknek, később a polgári repülésnek, ma már a sportrepülő pilótáknak, és a mezőgazdasági pilótáknak is egyaránt szükségük van a naprakész meteorológiai információkra.

Repülésmeteorológia oldalunkon összegyűjtöttük a legnépszerűbb és legjobb időjárás oldalak hivatkozásait, hogy repülés előtt vagy akár közben minden fontos forrást egyszerűen és gyorsan megtalálj. Magyarország várható időjárása, légállapoti diagramok, termik előrejelzés, METAR adatok, vészjelzések és figyelmeztetések. A képernyő szélén közvetlenül pedig pozíciód aktuális időjárási paramétereit is megtalálod.

JOGI NYILATKOZAT

Az oldal használatával a látogató elfogadja az alábbi felhasználási feltételeket:

Az oldalon feltüntetett repülésmeteorológia információkat mindenki csak saját felelősségre használhatja. A feltüntetett külső forrásokból származó információk pontosságáért és tartalmáért, valamint az esetlegesen ebből adódó bármilyen káresemény kapcsán a FLYTIME.HU nem vállal felelősséget!